Time;durP1;ratioP1;P1;durP2;ratioP2;P2;SDS_P1;SDS_P2;PMS_P1;PMS_P2;Temp;Humidity;BMP_temperature;BMP_pressure;BME280_temperature;BME280_humidity;BME280_pressure;Samples;Min_cycle;Max_cycle;Signal;HPM_P1;HPM_P2
2023/08/16 05:20:36;;;;;;;;;;;;;;;;;;4988981;28;19929;-49
2023/08/16 05:23:01;;;;;;;;;;;;;;;;;;4989940;28;19910;-48
2023/08/16 05:25:27;;;;;;;;;;;;;;;;;;4989875;28;20295;-47
2023/08/16 05:27:58;;;;;;;;;;;;;;;;;;4989594;28;20004;-45
2023/08/16 05:30:24;;;;;;;;;;;;;;;;;;4990161;28;19921;-50
2023/08/16 05:32:50;;;;;;;;;;;;;;;;;;4989521;28;20218;-47
2023/08/16 05:35:15;;;;;;;;;;;;;;;;;;4990003;28;19910;-47
2023/08/16 05:37:41;;;;;;;;;;;;;;;;;;4989591;28;19910;-51
2023/08/16 05:40:09;;;;;;;;;;;;;;;;;;4988390;28;19914;-49
2023/08/16 05:42:35;;;;;;;;;;;;;;;;;;4989230;28;19914;-48
2023/08/16 05:45:01;;;;;;;;;;;;;;;;;;4989774;28;20386;-50
2023/08/16 05:47:26;;;;;;;;;;;;;;;;;;4989375;28;19928;-48
2023/08/16 05:49:52;;;;;;;;;;;;;;;;;;4987695;28;19914;-47
2023/08/16 05:52:18;;;;;;;;;;;;;;;;;;4986880;28;19922;-49
2023/08/16 05:54:44;;;;;;;;;;;;;;;;;;4988745;28;20450;-48
2023/08/16 05:57:10;;;;;;;;;;;;;;;;;;4989348;28;20041;-50
2023/08/16 05:59:36;;;;;;;;;;;;;;;;;;4988877;28;19914;-48
2023/08/16 06:02:02;;;;;;;;;;;;;;;;;;4989674;28;19956;-48
2023/08/16 06:04:28;;;;;;;;;;;;;;;;;;4987712;28;19937;-48
2023/08/16 06:06:54;;;;;;;;;;;;;;;;;;4988128;28;19921;-48
2023/08/16 06:09:20;;;;;;;;;;;;;;;;;;4989586;28;19915;-48
2023/08/16 06:11:46;;;;;;;;;;;;;;;;;;4986409;28;19918;-47
2023/08/16 06:14:12;;;;;;;;;;;;;;;;;;4993251;28;20268;-48
2023/08/16 06:16:38;;;;;;;;;;;;;;;;;;4994431;28;20280;-47
2023/08/16 06:19:03;;;;;;;;;;;;;;;;;;4992820;28;19949;-47
2023/08/16 06:21:29;;;;;;;;;;;;;;;;;;4994255;28;19917;-50
2023/08/16 06:23:56;;;;;;;;;;;;;;;;;;4994279;28;19917;-50
2023/08/16 06:26:22;;;;;;;;;;;;;;;;;;4993405;28;19956;-47
2023/08/16 06:28:48;;;;;;;;;;;;;;;;;;4993768;28;19932;-48
2023/08/16 06:31:15;;;;;;;;;;;;;;;;;;4992362;28;20000;-46
2023/08/16 06:33:41;;;;;;;;;;;;;;;;;;4993058;28;20346;-47
2023/08/16 06:36:07;;;;;;;;;;;;;;;;;;4992090;28;19910;-49
2023/08/16 06:38:33;;;;;;;;;;;;;;;;;;4990978;28;20149;-51
2023/08/16 06:40:59;;;;;;;;;;;;;;;;;;4993069;28;19916;-51
2023/08/16 06:43:25;;;;;;;;;;;;;;;;;;4990682;28;20007;-48
2023/08/16 06:45:50;;;;;;;;;;;;;;;;;;4990485;28;20327;-46
2023/08/16 06:48:16;;;;;;;;;;;;;;;;;;4972979;28;19957;-49
2023/08/16 06:50:43;;;;;;;;;;;;;;;;;;4973139;28;20020;-47
2023/08/16 06:53:08;;;;;;;;;;;;;;;;;;4973546;28;20394;-47
2023/08/16 06:55:37;;;;;;;;;;;;;;;;;;4972898;28;20009;-45
2023/08/16 06:58:06;;;;;;;;;;;;;;;;;;4989398;28;20375;-45
2023/08/16 07:00:32;;;;;;;;;;;;;;;;;;4992367;28;19953;-48
2023/08/16 07:02:58;;;;;;;;;;;;;;;;;;4992108;28;20526;-46
2023/08/16 07:05:25;;;;;;;;;;;;;;;;;;4992348;28;20403;-49
2023/08/16 07:07:51;;;;;;;;;;;;;;;;;;4990625;28;20444;-47
2023/08/16 07:10:17;;;;;;;;;;;;;;;;;;4992164;28;19909;-50
2023/08/16 07:12:44;;;;;;;;;;;;;;;;;;4991845;28;19921;-46
2023/08/16 07:15:11;;;;;;;;;;;;;;;;;;4992305;28;19917;-47
2023/08/16 07:17:37;;;;;;;;;;;;;;;;;;4990194;28;19917;-47
2023/08/16 07:20:02;;;;;;;;;;;;;;;;;;4991886;28;20335;-45
2023/08/16 07:22:28;;;;;;;;;;;;;;;;;;4991833;28;20388;-46
2023/08/16 07:24:54;;;;;;;;;;;;;;;;;;4990639;28;19920;-45
2023/08/16 07:27:20;;;;;;;;;;;;;;;;;;4987989;28;19914;-48
2023/08/16 07:29:46;;;;;;;;;;;;;;;;;;4992626;28;20028;-48
2023/08/16 07:32:12;;;;;;;;;;;;;;;;;;4992644;28;19921;-50
2023/08/16 07:34:38;;;;;;;;;;;;;;;;;;4993182;28;19917;-47
2023/08/16 07:37:04;;;;;;;;;;;;;;;;;;4990355;28;19909;-46
2023/08/16 07:39:31;;;;;;;;;;;;;;;;;;4992783;28;19969;-46
2023/08/16 07:41:57;;;;;;;;;;;;;;;;;;4989154;28;19931;-47
2023/08/16 07:44:23;;;;;;;;;;;;;;;;;;4987410;28;19914;-45
2023/08/16 07:46:49;;;;;;;;;;;;;;;;;;4981707;28;19910;-45
2023/08/16 07:49:15;;;;;;;;;;;;;;;;;;4991035;28;19914;-46
2023/08/16 07:51:41;;;;;;;;;;;;;;;;;;4991510;28;20327;-46
2023/08/16 07:54:07;;;;;;;;;;;;;;;;;;5000942;28;19956;-45
2023/08/16 07:56:33;;;;;;;;;;;;;;;;;;4988125;28;20372;-45
2023/08/16 07:58:58;;;;;;;;;;;;;;;;;;4986486;28;19913;-46
2023/08/16 08:01:24;;;;;;;;;;;;;;;;;;4992131;28;19961;-46
2023/08/16 08:03:50;;;;;;;;;;;;;;;;;;4991869;28;19917;-45
2023/08/16 08:06:16;;;;;;;;;;;;;;;;;;4992078;28;20333;-45
2023/08/16 08:08:42;;;;;;;;;;;;;;;;;;4991922;28;19914;-44
2023/08/16 08:11:08;;;;;;;;;;;;;;;;;;4992254;28;20300;-45
2023/08/16 08:13:34;;;;;;;;;;;;;;;;;;4992013;28;19910;-45
2023/08/16 08:16:00;;;;;;;;;;;;;;;;;;4991681;28;19917;-46
2023/08/16 08:18:26;;;;;;;;;;;;;;;;;;4992162;28;19909;-45
2023/08/16 08:20:52;;;;;;;;;;;;;;;;;;4991577;28;19925;-44
2023/08/16 08:23:18;;;;;;;;;;;;;;;;;;4991695;28;20012;-46
2023/08/16 08:25:44;;;;;;;;;;;;;;;;;;4990728;28;19920;-46
2023/08/16 08:28:10;;;;;;;;;;;;;;;;;;4991203;28;20045;-44
2023/08/16 08:30:36;;;;;;;;;;;;;;;;;;4991809;28;19946;-47
2023/08/16 08:33:02;;;;;;;;;;;;;;;;;;4991879;28;19996;-48
2023/08/16 08:35:27;;;;;;;;;;;;;;;;;;4990567;28;19964;-45
2023/08/16 08:37:53;;;;;;;;;;;;;;;;;;4991594;28;20406;-45
2023/08/16 08:40:19;;;;;;;;;;;;;;;;;;4991895;28;19910;-47
2023/08/16 08:42:46;;;;;;;;;;;;;;;;;;4990869;28;19913;-46
2023/08/16 08:45:12;;;;;;;;;;;;;;;;;;4990511;28;19968;-45
2023/08/16 08:47:38;;;;;;;;;;;;;;;;;;4991531;28;19917;-46
2023/08/16 08:50:04;;;;;;;;;;;;;;;;;;4990020;28;19937;-45
2023/08/16 08:52:30;;;;;;;;;;;;;;;;;;4990305;28;20339;-45
2023/08/16 08:54:58;;;;;;;;;;;;;;;;;;4989102;28;19914;-48
2023/08/16 08:57:24;;;;;;;;;;;;;;;;;;4988258;28;19917;-45
2023/08/16 08:59:50;;;;;;;;;;;;;;;;;;4991078;28;19917;-48
2023/08/16 09:02:16;;;;;;;;;;;;;;;;;;4988307;28;20324;-47
2023/08/16 09:04:42;;;;;;;;;;;;;;;;;;4991054;28;20016;-44
2023/08/16 09:07:07;;;;;;;;;;;;;;;;;;4990501;28;20177;-48
2023/08/16 09:09:33;;;;;;;;;;;;;;;;;;4989756;28;19949;-47
2023/08/16 09:11:59;;;;;;;;;;;;;;;;;;4991304;28;20265;-48
2023/08/16 09:14:25;;;;;;;;;;;;;;;;;;4990747;28;19910;-45
2023/08/16 09:16:51;;;;;;;;;;;;;;;;;;4988497;28;19910;-46
2023/08/16 09:19:17;;;;;;;;;;;;;;;;;;4971571;28;20006;-47
2023/08/16 09:21:43;;;;;;;;;;;;;;;;;;4990992;28;19917;-47
2023/08/16 09:24:09;;;;;;;;;;;;;;;;;;4991515;28;19937;-49
2023/08/16 09:26:36;;;;;;;;;;;;;;;;;;4991131;28;19914;-46
2023/08/16 09:29:04;;;;;;;;;;;;;;;;;;4990913;28;19921;-48
2023/08/16 09:31:30;;;;;;;;;;;;;;;;;;4990958;28;19914;-46
2023/08/16 09:33:58;;;;;;;;;;;;;;;;;;4988883;28;19913;-45
2023/08/16 09:36:25;;;;;;;;;;;;;;;;;;4985234;28;20015;-48
2023/08/16 09:38:50;;;;;;;;;;;;;;;;;;4986238;28;20312;-45
2023/08/16 09:41:18;;;;;;;;;;;;;;;;;;4989813;28;19921;-45
2023/08/16 09:43:44;;;;;;;;;;;;;;;;;;4989846;28;19968;-48
2023/08/16 09:46:10;;;;;;;;;;;;;;;;;;4991370;28;19960;-47
2023/08/16 09:48:36;;;;;;;;;;;;;;;;;;4992580;28;20342;-46
2023/08/16 09:51:03;;;;;;;;;;;;;;;;;;4993659;28;19929;-46
2023/08/16 09:53:29;;;;;;;;;;;;;;;;;;4994399;28;19914;-46
2023/08/16 09:55:55;;;;;;;;;;;;;;;;;;4993482;28;20319;-48
2023/08/16 09:58:21;;;;;;;;;;;;;;;;;;4993361;28;19920;-47
2023/08/16 10:00:48;;;;;;;;;;;;;;;;;;4994360;28;19940;-47
2023/08/16 10:03:14;;;;;;;;;;;;;;;;;;4993685;28;19929;-45
2023/08/16 10:05:40;;;;;;;;;;;;;;;;;;5014340;28;19910;-48
2023/08/16 10:08:06;;;;;;;;;;;;;;;;;;5000365;28;19920;-47
2023/08/16 10:10:32;;;;;;;;;;;;;;;;;;4981609;28;19965;-46
2023/08/16 10:12:58;;;;;;;;;;;;;;;;;;4975096;28;19953;-46
2023/08/16 10:15:24;;;;;;;;;;;;;;;;;;4974620;28;19910;-46
2023/08/16 10:17:50;;;;;;;;;;;;;;;;;;4974586;28;19910;-45
2023/08/16 10:20:16;;;;;;;;;;;;;;;;;;4974693;28;20391;-48
2023/08/16 10:22:42;;;;;;;;;;;;;;;;;;4974585;28;19910;-46
2023/08/16 10:25:15;;;;;;;;;;;;;;;;;;4973662;28;20350;-46
2023/08/16 10:27:40;;;;;;;;;;;;;;;;;;4975929;28;20427;-46
2023/08/16 10:30:07;;;;;;;;;;;;;;;;;;5007912;28;19913;-46
2023/08/16 10:32:33;;;;;;;;;;;;;;;;;;5007683;28;19917;-46
2023/08/16 10:34:59;;;;;;;;;;;;;;;;;;4992036;28;20004;-48
2023/08/16 10:37:26;;;;;;;;;;;;;;;;;;4983437;28;19949;-46
2023/08/16 10:39:51;;;;;;;;;;;;;;;;;;4985387;28;19976;-46
2023/08/16 10:42:17;;;;;;;;;;;;;;;;;;4975248;28;19914;-43
2023/08/16 10:44:45;;;;;;;;;;;;;;;;;;4978670;28;19924;-44
2023/08/16 10:47:11;;;;;;;;;;;;;;;;;;4992545;28;19914;-43
2023/08/16 10:49:37;;;;;;;;;;;;;;;;;;4994831;28;20360;-46
2023/08/16 10:52:03;;;;;;;;;;;;;;;;;;4994567;28;19914;-44
2023/08/16 10:54:29;;;;;;;;;;;;;;;;;;5014135;28;20381;-44
2023/08/16 10:56:54;;;;;;;;;;;;;;;;;;5009591;28;19920;-44
2023/08/16 10:59:20;;;;;;;;;;;;;;;;;;5013859;28;19980;-45
2023/08/16 11:01:46;;;;;;;;;;;;;;;;;;5014046;28;19910;-46
2023/08/16 11:04:12;;;;;;;;;;;;;;;;;;5013800;28;20280;-46
2023/08/16 11:06:39;;;;;;;;;;;;;;;;;;5004779;28;20399;-44
2023/08/16 11:09:05;;;;;;;;;;;;;;;;;;4994219;28;19910;-44
2023/08/16 11:11:31;;;;;;;;;;;;;;;;;;4992894;28;19922;-46
2023/08/16 11:13:57;;;;;;;;;;;;;;;;;;5012307;28;20392;-46
2023/08/16 11:16:23;;;;;;;;;;;;;;;;;;4992734;28;19949;-44
2023/08/16 11:18:49;;;;;;;;;;;;;;;;;;4994587;28;19920;-45
2023/08/16 11:21:15;;;;;;;;;;;;;;;;;;4991627;28;20398;-44
2023/08/16 11:23:42;;;;;;;;;;;;;;;;;;4980570;28;19914;-44
2023/08/16 11:26:08;;;;;;;;;;;;;;;;;;5013160;28;19913;-43
2023/08/16 11:28:34;;;;;;;;;;;;;;;;;;5012604;28;20016;-43
2023/08/16 11:31:00;;;;;;;;;;;;;;;;;;5009347;28;19917;-43
2023/08/16 11:33:26;;;;;;;;;;;;;;;;;;5011497;28;19952;-43
2023/08/16 11:35:52;;;;;;;;;;;;;;;;;;5010922;28;20018;-43
2023/08/16 11:38:17;;;;;;;;;;;;;;;;;;5012819;28;19916;-43
2023/08/16 11:40:43;;;;;;;;;;;;;;;;;;5010907;28;20312;-45
2023/08/16 11:43:09;;;;;;;;;;;;;;;;;;4992263;28;19937;-43
2023/08/16 11:45:35;;;;;;;;;;;;;;;;;;4992029;28;20015;-43
2023/08/16 11:48:02;;;;;;;;;;;;;;;;;;4991855;28;19918;-44
2023/08/16 11:50:28;;;;;;;;;;;;;;;;;;4993116;28;20302;-43
2023/08/16 11:52:54;;;;;;;;;;;;;;;;;;4992682;28;19913;-44
2023/08/16 11:55:20;;;;;;;;;;;;;;;;;;4992465;28;19910;-44
2023/08/16 11:57:46;;;;;;;;;;;;;;;;;;4992310;28;19909;-44
2023/08/16 12:00:14;;;;;;;;;;;;;;;;;;4991117;28;20391;-43
2023/08/16 12:02:40;;;;;;;;;;;;;;;;;;4992551;28;19917;-44
2023/08/16 12:05:06;;;;;;;;;;;;;;;;;;4992553;28;20369;-43
2023/08/16 12:07:32;;;;;;;;;;;;;;;;;;4991123;28;19918;-44
2023/08/16 12:09:58;;;;;;;;;;;;;;;;;;4991608;28;20438;-43
2023/08/16 12:12:24;;;;;;;;;;;;;;;;;;4991809;28;19925;-44
2023/08/16 12:14:50;;;;;;;;;;;;;;;;;;4991144;28;19913;-45
2023/08/16 12:17:16;;;;;;;;;;;;;;;;;;4992077;28;20019;-44
2023/08/16 12:19:42;;;;;;;;;;;;;;;;;;4990114;28;19933;-44
2023/08/16 12:22:07;;;;;;;;;;;;;;;;;;4996798;28;19948;-43
2023/08/16 12:24:34;;;;;;;;;;;;;;;;;;4989450;28;19996;-43
2023/08/16 12:26:59;;;;;;;;;;;;;;;;;;4993237;28;19917;-43
2023/08/16 12:29:26;;;;;;;;;;;;;;;;;;4989668;28;19922;-44
2023/08/16 12:31:52;;;;;;;;;;;;;;;;;;4990407;28;19918;-44
2023/08/16 12:34:18;;;;;;;;;;;;;;;;;;4998124;28;20008;-43
2023/08/16 12:36:44;;;;;;;;;;;;;;;;;;5011240;28;20379;-45
2023/08/16 12:39:09;;;;;;;;;;;;;;;;;;5004131;28;19921;-43
2023/08/16 12:41:35;;;;;;;;;;;;;;;;;;5008107;28;20380;-43
2023/08/16 12:44:03;;;;;;;;;;;;;;;;;;5008902;28;19975;-43
2023/08/16 12:46:29;;;;;;;;;;;;;;;;;;4998862;28;20365;-43
2023/08/16 12:48:55;;;;;;;;;;;;;;;;;;4991991;28;19922;-43
2023/08/16 12:51:21;;;;;;;;;;;;;;;;;;4990043;28;19918;-45
2023/08/16 12:53:47;;;;;;;;;;;;;;;;;;4990174;28;19953;-45
2023/08/16 12:56:13;;;;;;;;;;;;;;;;;;5004602;28;20355;-46
2023/08/16 12:58:39;;;;;;;;;;;;;;;;;;5004708;28;19922;-43
2023/08/16 13:01:06;;;;;;;;;;;;;;;;;;4991479;28;20384;-44
2023/08/16 13:03:32;;;;;;;;;;;;;;;;;;4991127;28;19913;-44
2023/08/16 13:05:58;;;;;;;;;;;;;;;;;;4995786;28;20292;-46
2023/08/16 13:08:24;;;;;;;;;;;;;;;;;;4989917;28;19914;-43
2023/08/16 13:10:50;;;;;;;;;;;;;;;;;;5007273;28;20714;-44
2023/08/16 13:13:16;;;;;;;;;;;;;;;;;;4990669;28;19997;-45
2023/08/16 13:15:42;;;;;;;;;;;;;;;;;;4986775;28;19914;-44
2023/08/16 13:18:08;;;;;;;;;;;;;;;;;;4991030;28;19964;-45
2023/08/16 13:20:34;;;;;;;;;;;;;;;;;;4990642;28;20324;-43
2023/08/16 13:22:59;;;;;;;;;;;;;;;;;;4990746;28;19913;-43
2023/08/16 13:25:25;;;;;;;;;;;;;;;;;;4995925;28;19910;-42
2023/08/16 13:27:51;;;;;;;;;;;;;;;;;;4992291;28;19921;-44
2023/08/16 13:30:17;;;;;;;;;;;;;;;;;;4987557;28;19913;-45
2023/08/16 13:32:43;;;;;;;;;;;;;;;;;;4996145;28;20277;-43
2023/08/16 13:35:09;;;;;;;;;;;;;;;;;;4988832;28;19914;-44
2023/08/16 13:37:35;;;;;;;;;;;;;;;;;;4988189;28;19922;-43
2023/08/16 13:40:01;;;;;;;;;;;;;;;;;;4989876;28;19921;-44
2023/08/16 13:42:27;;;;;;;;;;;;;;;;;;4990668;28;19922;-43
2023/08/16 13:44:52;;;;;;;;;;;;;;;;;;4984127;28;19910;-44
2023/08/16 13:47:18;;;;;;;;;;;;;;;;;;4985202;28;20422;-44
2023/08/16 13:49:45;;;;;;;;;;;;;;;;;;4990463;28;19961;-43
2023/08/16 13:52:11;;;;;;;;;;;;;;;;;;4985815;28;19937;-43
2023/08/16 13:54:37;;;;;;;;;;;;;;;;;;4985677;28;19915;-44
2023/08/16 13:57:03;;;;;;;;;;;;;;;;;;4984461;28;20331;-44
2023/08/16 13:59:29;;;;;;;;;;;;;;;;;;4987013;28;19913;-44
2023/08/16 14:01:55;;;;;;;;;;;;;;;;;;4985784;28;20385;-44
2023/08/16 14:04:21;;;;;;;;;;;;;;;;;;4985252;28;19918;-44
2023/08/16 14:06:47;;;;;;;;;;;;;;;;;;4983940;28;19910;-44
2023/08/16 14:11:29;;;;;;;;;;;;;;;;;;5129913;27;19911;-43
2023/08/16 14:13:55;;;;;;;;;;;;;;;;;;5129770;27;19953;-42
2023/08/16 14:16:21;;;;;;;;;;;;;;;;;;5129906;27;19919;-43
2023/08/16 14:18:48;;;;;;;;;;;;;;;;;;5129168;27;19947;-42
2023/08/16 14:21:14;;;;;;;;;;;;;;;;;;5129501;27;19908;-43
2023/08/16 14:23:40;;;;;;;;;;;;;;;;;;5129680;27;19915;-42
2023/08/16 14:26:07;;;;;;;;;;;;;;;;;;5128868;27;20412;-43
2023/08/16 14:28:33;;;;;;;;;;;;;;;;;;5129158;27;20362;-42
2023/08/16 14:30:59;;;;;;;;;;;;;;;;;;5129042;27;19955;-43
2023/08/16 14:33:25;;;;;;;;;;;;;;;;;;5129217;28;19908;-43
2023/08/16 14:35:51;;;;;;;;;;;;;;;;;;5129383;27;19964;-42
2023/08/16 14:38:17;;;;;;;;;;;;;;;;;;5129067;27;19912;-43
2023/08/16 14:40:42;;;;;;;;;;;;;;;;;;5129175;27;19952;-43
2023/08/16 14:43:08;;;;;;;;;;;;;;;;;;5128011;27;19934;-43
2023/08/16 14:45:34;;;;;;;;;;;;;;;;;;5129291;27;19926;-42
2023/08/16 14:48:00;;;;;;;;;;;;;;;;;;5128260;27;19908;-42
2023/08/16 14:50:26;;;;;;;;;;;;;;;;;;5109194;28;19920;-42
2023/08/16 14:52:52;;;;;;;;;;;;;;;;;;5118767;27;19916;-43
2023/08/16 14:55:18;;;;;;;;;;;;;;;;;;5129384;28;19911;-44
2023/08/16 14:57:44;;;;;;;;;;;;;;;;;;5117803;27;19930;-42
2023/08/16 15:00:16;;;;;;;;;;;;;;;;;;5119965;28;19938;-43
2023/08/16 15:02:42;;;;;;;;;;;;;;;;;;5117580;27;19918;-43
2023/08/16 15:05:08;;;;;;;;;;;;;;;;;;5119190;28;19916;-43
2023/08/16 15:07:34;;;;;;;;;;;;;;;;;;5114782;27;20010;-42
2023/08/16 15:10:00;;;;;;;;;;;;;;;;;;5118445;27;20370;-43
2023/08/16 15:12:26;;;;;;;;;;;;;;;;;;5116151;28;19999;-42
2023/08/16 15:14:52;;;;;;;;;;;;;;;;;;5115230;28;19916;-43
2023/08/16 15:17:17;;;;;;;;;;;;;;;;;;5108069;28;19908;-43
2023/08/16 15:19:44;;;;;;;;;;;;;;;;;;5113869;28;19912;-42
2023/08/16 15:22:10;;;;;;;;;;;;;;;;;;5109729;27;20423;-43
2023/08/16 15:24:36;;;;;;;;;;;;;;;;;;5101139;28;20386;-43
2023/08/16 15:27:03;;;;;;;;;;;;;;;;;;5101125;28;19947;-44
2023/08/16 15:29:28;;;;;;;;;;;;;;;;;;5101657;28;19912;-43
2023/08/16 15:31:54;;;;;;;;;;;;;;;;;;5102770;28;19912;-43
2023/08/16 15:34:20;;;;;;;;;;;;;;;;;;5106801;27;20415;-43
2023/08/16 15:36:46;;;;;;;;;;;;;;;;;;5100649;28;20004;-44
2023/08/16 15:39:12;;;;;;;;;;;;;;;;;;5102737;28;19915;-43
2023/08/16 15:41:38;;;;;;;;;;;;;;;;;;5101934;28;20003;-42
2023/08/16 15:44:04;;;;;;;;;;;;;;;;;;5105302;27;20340;-44
2023/08/16 15:46:31;;;;;;;;;;;;;;;;;;5102314;28;20291;-43
2023/08/16 15:48:57;;;;;;;;;;;;;;;;;;5101680;27;20345;-44
2023/08/16 15:51:23;;;;;;;;;;;;;;;;;;5103694;27;19916;-42
2023/08/16 15:53:49;;;;;;;;;;;;;;;;;;5101191;27;19912;-45
2023/08/16 15:56:15;;;;;;;;;;;;;;;;;;5100122;28;19919;-43
2023/08/16 15:58:41;;;;;;;;;;;;;;;;;;5099676;28;19923;-44
2023/08/16 16:01:07;;;;;;;;;;;;;;;;;;5099399;28;19919;-44
2023/08/16 16:03:33;;;;;;;;;;;;;;;;;;5098667;28;19994;-43
2023/08/16 16:05:59;;;;;;;;;;;;;;;;;;5100532;28;20289;-42
2023/08/16 16:08:28;;;;;;;;;;;;;;;;;;5100512;28;19908;-42
2023/08/16 16:10:54;;;;;;;;;;;;;;;;;;5097440;28;19920;-43
2023/08/16 16:13:20;;;;;;;;;;;;;;;;;;5106430;28;19920;-46
2023/08/16 16:15:46;;;;;;;;;;;;;;;;;;5096399;28;19912;-44
2023/08/16 16:18:11;;;;;;;;;;;;;;;;;;5096303;28;20026;-42
2023/08/16 16:20:37;;;;;;;;;;;;;;;;;;5095472;28;19919;-43
2023/08/16 16:23:03;;;;;;;;;;;;;;;;;;5095177;28;19937;-45
2023/08/16 16:25:29;;;;;;;;;;;;;;;;;;5093056;28;20058;-43
2023/08/16 16:27:55;;;;;;;;;;;;;;;;;;5088748;28;19912;-43
2023/08/16 16:30:21;;;;;;;;;;;;;;;;;;5091385;28;19920;-46
2023/08/16 16:32:47;;;;;;;;;;;;;;;;;;5104353;28;19918;-44
2023/08/16 16:35:13;;;;;;;;;;;;;;;;;;5104798;28;20366;-44
2023/08/16 16:37:39;;;;;;;;;;;;;;;;;;5091181;28;20324;-46
2023/08/16 16:40:05;;;;;;;;;;;;;;;;;;5091185;28;20400;-45
2023/08/16 16:42:31;;;;;;;;;;;;;;;;;;5095115;28;19916;-43
2023/08/16 16:44:56;;;;;;;;;;;;;;;;;;5101498;28;19908;-43
2023/08/16 16:47:22;;;;;;;;;;;;;;;;;;5110066;28;19908;-44
2023/08/16 16:49:49;;;;;;;;;;;;;;;;;;5090103;28;20354;-44
2023/08/16 16:52:14;;;;;;;;;;;;;;;;;;5101519;28;20336;-45
2023/08/16 16:54:40;;;;;;;;;;;;;;;;;;5097883;28;19908;-44
2023/08/16 16:57:06;;;;;;;;;;;;;;;;;;5109514;28;19968;-45
2023/08/16 16:59:32;;;;;;;;;;;;;;;;;;5100771;28;20286;-44
2023/08/16 17:01:58;;;;;;;;;;;;;;;;;;5102719;28;19918;-43
2023/08/16 17:04:24;;;;;;;;;;;;;;;;;;5095829;27;20423;-44
2023/08/16 17:06:50;;;;;;;;;;;;;;;;;;5095712;28;19918;-44
2023/08/16 17:09:16;;;;;;;;;;;;;;;;;;5091364;28;19955;-45
2023/08/16 17:11:41;;;;;;;;;;;;;;;;;;5088806;28;19924;-44
2023/08/16 17:14:07;;;;;;;;;;;;;;;;;;5087859;28;19958;-45
2023/08/16 17:16:33;;;;;;;;;;;;;;;;;;5096194;28;19920;-43
2023/08/16 17:18:59;;;;;;;;;;;;;;;;;;5109056;27;20002;-43
2023/08/16 17:21:25;;;;;;;;;;;;;;;;;;5096453;28;19973;-44
2023/08/16 17:23:51;;;;;;;;;;;;;;;;;;5088228;28;19919;-44
2023/08/16 17:26:17;;;;;;;;;;;;;;;;;;5087604;28;20466;-47
2023/08/16 17:28:43;;;;;;;;;;;;;;;;;;5087876;28;19968;-45
2023/08/16 17:31:10;;;;;;;;;;;;;;;;;;5089687;28;19920;-47
2023/08/16 17:33:36;;;;;;;;;;;;;;;;;;5095973;28;19920;-46
2023/08/16 17:36:02;;;;;;;;;;;;;;;;;;5089336;28;19968;-47
2023/08/16 17:38:27;;;;;;;;;;;;;;;;;;5103660;28;20362;-45
2023/08/16 17:40:53;;;;;;;;;;;;;;;;;;5106031;28;19915;-48
2023/08/16 17:43:19;;;;;;;;;;;;;;;;;;5104516;28;19919;-44
2023/08/16 17:45:45;;;;;;;;;;;;;;;;;;5105159;28;19916;-48
2023/08/16 17:48:11;;;;;;;;;;;;;;;;;;5087202;28;20014;-45
2023/08/16 17:50:37;;;;;;;;;;;;;;;;;;5087073;28;19916;-43
2023/08/16 17:53:03;;;;;;;;;;;;;;;;;;5087016;28;19916;-48
2023/08/16 17:55:29;;;;;;;;;;;;;;;;;;5090591;28;20785;-44
2023/08/16 17:57:54;;;;;;;;;;;;;;;;;;5112182;27;19916;-46
2023/08/16 18:00:20;;;;;;;;;;;;;;;;;;5094745;28;20390;-45
2023/08/16 18:02:46;;;;;;;;;;;;;;;;;;5092380;28;19912;-44
2023/08/16 18:05:12;;;;;;;;;;;;;;;;;;5087443;28;19958;-44
2023/08/16 18:07:38;;;;;;;;;;;;;;;;;;5087840;28;19912;-45
2023/08/16 18:10:04;;;;;;;;;;;;;;;;;;5095993;28;20010;-45
2023/08/16 18:12:30;;;;;;;;;;;;;;;;;;5098495;28;19912;-44
2023/08/16 18:14:56;;;;;;;;;;;;;;;;;;5088478;28;20006;-44
2023/08/16 18:17:22;;;;;;;;;;;;;;;;;;5088138;28;20374;-45
2023/08/16 18:19:47;;;;;;;;;;;;;;;;;;5086033;28;20028;-44
2023/08/16 18:22:13;;;;;;;;;;;;;;;;;;5101357;28;19911;-45
2023/08/16 18:24:39;;;;;;;;;;;;;;;;;;5092170;28;19963;-47
2023/08/16 18:27:05;;;;;;;;;;;;;;;;;;5085959;28;19912;-43
2023/08/16 18:29:31;;;;;;;;;;;;;;;;;;5093213;28;19955;-45
2023/08/16 18:31:57;;;;;;;;;;;;;;;;;;5087860;28;19921;-44
2023/08/16 18:34:23;;;;;;;;;;;;;;;;;;5085271;28;19912;-43
2023/08/16 18:36:49;;;;;;;;;;;;;;;;;;5093966;28;19926;-44
2023/08/16 18:39:15;;;;;;;;;;;;;;;;;;5093967;28;19970;-44
2023/08/16 18:41:40;;;;;;;;;;;;;;;;;;5103347;28;19912;-46
2023/08/16 18:44:06;;;;;;;;;;;;;;;;;;5112548;28;19912;-44
2023/08/16 18:46:32;;;;;;;;;;;;;;;;;;5093536;28;20279;-46
2023/08/16 18:48:58;;;;;;;;;;;;;;;;;;5093266;28;19951;-46
2023/08/16 18:51:24;;;;;;;;;;;;;;;;;;5109261;28;19974;-44
2023/08/16 18:53:50;;;;;;;;;;;;;;;;;;5085788;28;19938;-44
2023/08/16 18:56:16;;;;;;;;;;;;;;;;;;5096436;28;19916;-44
2023/08/16 18:58:42;;;;;;;;;;;;;;;;;;5093879;28;19916;-44
2023/08/16 19:01:08;;;;;;;;;;;;;;;;;;5089935;28;20469;-44
2023/08/16 19:03:34;;;;;;;;;;;;;;;;;;5090332;28;19912;-44
2023/08/16 19:06:00;;;;;;;;;;;;;;;;;;5089209;28;19912;-43
2023/08/16 19:08:26;;;;;;;;;;;;;;;;;;5092788;28;19995;-46
2023/08/16 19:10:52;;;;;;;;;;;;;;;;;;5107277;28;19924;-46
2023/08/16 19:13:18;;;;;;;;;;;;;;;;;;5108434;28;20359;-43
2023/08/16 19:15:44;;;;;;;;;;;;;;;;;;5093943;28;19934;-43
2023/08/16 19:18:10;;;;;;;;;;;;;;;;;;5092620;28;20418;-43
2023/08/16 19:20:36;;;;;;;;;;;;;;;;;;5090910;28;19908;-44
2023/08/16 19:23:03;;;;;;;;;;;;;;;;;;5090151;28;19912;-43
2023/08/16 19:25:29;;;;;;;;;;;;;;;;;;5091238;28;19916;-43
2023/08/16 19:27:55;;;;;;;;;;;;;;;;;;5106637;28;19911;-44
2023/08/16 19:30:21;;;;;;;;;;;;;;;;;;5090324;28;19916;-43
2023/08/16 19:32:46;;;;;;;;;;;;;;;;;;5089989;28;19908;-44
2023/08/16 19:35:12;;;;;;;;;;;;;;;;;;5103109;28;19912;-46
2023/08/16 19:37:40;;;;;;;;;;;;;;;;;;5107527;28;19923;-44
2023/08/16 19:40:06;;;;;;;;;;;;;;;;;;5105930;28;19933;-44
2023/08/16 19:42:32;;;;;;;;;;;;;;;;;;5095894;28;20014;-44
2023/08/16 19:44:58;;;;;;;;;;;;;;;;;;5088926;28;20428;-43
2023/08/16 19:47:24;;;;;;;;;;;;;;;;;;5089721;28;19923;-46
2023/08/16 19:49:50;;;;;;;;;;;;;;;;;;5091884;28;19923;-44
2023/08/16 19:52:15;;;;;;;;;;;;;;;;;;5088107;28;19919;-43
2023/08/16 19:54:41;;;;;;;;;;;;;;;;;;5093440;28;19920;-47
2023/08/16 19:57:07;;;;;;;;;;;;;;;;;;5089630;28;19916;-43
2023/08/16 19:59:33;;;;;;;;;;;;;;;;;;5088968;28;19980;-44
2023/08/16 20:01:59;;;;;;;;;;;;;;;;;;5105259;28;19911;-45
2023/08/16 20:04:25;;;;;;;;;;;;;;;;;;5099472;28;19912;-44
2023/08/16 20:06:51;;;;;;;;;;;;;;;;;;5094653;28;20593;-44
2023/08/16 20:09:17;;;;;;;;;;;;;;;;;;5109645;28;19998;-43
2023/08/16 20:11:42;;;;;;;;;;;;;;;;;;5109793;28;20281;-47
2023/08/16 20:14:08;;;;;;;;;;;;;;;;;;5103620;27;19965;-45
2023/08/16 20:16:36;;;;;;;;;;;;;;;;;;5096562;28;19935;-43
2023/08/16 20:19:03;;;;;;;;;;;;;;;;;;5088726;28;19912;-45
2023/08/16 20:21:29;;;;;;;;;;;;;;;;;;5088587;28;19919;-43
2023/08/16 20:23:55;;;;;;;;;;;;;;;;;;5102235;28;19912;-44
2023/08/16 20:26:21;;;;;;;;;;;;;;;;;;5108544;28;19918;-44
2023/08/16 20:28:47;;;;;;;;;;;;;;;;;;5101642;28;19947;-44
2023/08/16 20:31:13;;;;;;;;;;;;;;;;;;5095499;28;19916;-45
2023/08/16 20:33:40;;;;;;;;;;;;;;;;;;5097761;28;20504;-43
2023/08/16 20:36:06;;;;;;;;;;;;;;;;;;5089443;28;19916;-44
2023/08/16 20:38:32;;;;;;;;;;;;;;;;;;5088814;28;19981;-45
2023/08/16 20:40:58;;;;;;;;;;;;;;;;;;5106154;28;20392;-44
2023/08/16 20:43:24;;;;;;;;;;;;;;;;;;5106958;27;19943;-43
2023/08/16 20:45:50;;;;;;;;;;;;;;;;;;5104432;27;19912;-44
2023/08/16 20:48:16;;;;;;;;;;;;;;;;;;5087556;28;19912;-43
2023/08/16 20:50:42;;;;;;;;;;;;;;;;;;5088783;28;19950;-46
2023/08/16 20:53:08;;;;;;;;;;;;;;;;;;5092651;28;19912;-44
2023/08/16 20:55:34;;;;;;;;;;;;;;;;;;5090114;28;20769;-45
2023/08/16 20:58:00;;;;;;;;;;;;;;;;;;5107767;28;19916;-44
2023/08/16 21:00:26;;;;;;;;;;;;;;;;;;5108912;28;20360;-45
2023/08/16 21:02:51;;;;;;;;;;;;;;;;;;5098849;28;19965;-44
2023/08/16 21:05:17;;;;;;;;;;;;;;;;;;5087514;28;20436;-44
2023/08/16 21:07:43;;;;;;;;;;;;;;;;;;5103217;28;19920;-45
2023/08/16 21:10:09;;;;;;;;;;;;;;;;;;5088892;28;19916;-46
2023/08/16 21:12:35;;;;;;;;;;;;;;;;;;5096142;28;19940;-45
2023/08/16 21:15:01;;;;;;;;;;;;;;;;;;5108918;28;19915;-43
2023/08/16 21:17:27;;;;;;;;;;;;;;;;;;5108757;28;19961;-44
2023/08/16 21:19:52;;;;;;;;;;;;;;;;;;5108647;28;19915;-44
2023/08/16 21:22:18;;;;;;;;;;;;;;;;;;5108755;28;19914;-43
2023/08/16 21:24:44;;;;;;;;;;;;;;;;;;5123205;27;20376;-44
2023/08/16 21:27:10;;;;;;;;;;;;;;;;;;5130130;27;19922;-43
2023/08/16 21:29:36;;;;;;;;;;;;;;;;;;5129164;27;19923;-44
2023/08/16 21:32:02;;;;;;;;;;;;;;;;;;5127858;27;19907;-46
2023/08/16 21:34:28;;;;;;;;;;;;;;;;;;5129318;27;19914;-43
2023/08/16 21:36:54;;;;;;;;;;;;;;;;;;5116509;27;19908;-43
2023/08/16 21:39:20;;;;;;;;;;;;;;;;;;5107753;28;19915;-43
2023/08/16 21:41:45;;;;;;;;;;;;;;;;;;5108616;28;19912;-44
2023/08/16 21:44:11;;;;;;;;;;;;;;;;;;5107366;28;19955;-43
2023/08/16 21:46:37;;;;;;;;;;;;;;;;;;5109060;28;20413;-44
2023/08/16 21:49:03;;;;;;;;;;;;;;;;;;5108727;28;19961;-43
2023/08/16 21:51:29;;;;;;;;;;;;;;;;;;5108406;28;19950;-44
2023/08/16 21:53:55;;;;;;;;;;;;;;;;;;5108714;28;19914;-44
2023/08/16 21:56:21;;;;;;;;;;;;;;;;;;5108806;28;19908;-44
2023/08/16 21:58:47;;;;;;;;;;;;;;;;;;5108392;28;20286;-44